Max Wonder — 9HA4072 — position and weather

sailwx.info

Track history (hours):
 
Tides and Currents Weather Stations Pressure Air Temp Water Temp Dewpoint Dewpoint Depression Visibility Wind Speed Wind Dir Waves Ship Positions

Max Wonder

Last reported at 2017-Nov-20 00:31 UTC. Time now 2017-Nov-24 13:00 UTC.
Position N 28°05' W 015°21'.

Length 162 m; draft 9.3 m.

MMSI: 249060000.

Date/timePositionNaut miles runAvg speedWind from/ knotsBaromVisibWave heightAir tempDewpointWater temp
2017-Nov-20 00:31N 28°05' W 015°21'5 9.8
2017-Nov-20 00:00N 28°08' W 015°25'0 0.4
2017-Nov-19 23:23N 28°09' W 015°25'0 0.0
2017-Nov-19 22:56N 28°09' W 015°25'0 0.0
2017-Nov-19 22:26N 28°09' W 015°25'0 0.0
2017-Nov-19 21:56N 28°09' W 015°25'0 0.0
2017-Nov-19 21:26N 28°09' W 015°25'0 0.0
2017-Nov-19 20:56N 28°09' W 015°25'0 0.0
2017-Nov-19 20:26N 28°09' W 015°25'0 0.0
2017-Nov-19 19:59N 28°09' W 015°25'0 0.0
2017-Nov-19 19:29N 28°09' W 015°25'0 0.0
2017-Nov-19 18:59N 28°09' W 015°25'0 0.0
2017-Nov-19 18:29N 28°09' W 015°25'0 0.0
2017-Nov-19 17:59N 28°09' W 015°25'0 0.0
2017-Nov-19 17:29N 28°09' W 015°25'0 0.0
2017-Nov-19 16:59N 28°09' W 015°25'0 0.0
2017-Nov-19 16:29N 28°09' W 015°25'0 0.0
2017-Nov-19 15:59N 28°09' W 015°25'0 0.0
2017-Nov-19 15:29N 28°09' W 015°25'0 0.0
2017-Nov-19 14:59N 28°09' W 015°25'0 0.1
2017-Nov-19 14:31N 28°09' W 015°25'2 3.8
2017-Nov-19 14:00N 28°07' W 015°24'2 4.4
2017-Nov-19 13:31N 28°06' W 015°22'2 4.7
2017-Nov-19 13:01N 28°06' W 015°19'4 8.2
2017-Nov-19 12:31N 28°09' W 015°16'612.3
2017-Nov-19 12:00N 28°14' W 015°11'714.2
2017-Nov-19 11:30N 28°19' W 015°06'714.1
2017-Nov-19 11:00N 28°25' W 015°01'714.4
2017-Nov-19 10:30N 28°30' W 014°56'714.5
2017-Nov-19 10:00N 28°36' W 014°51'64613.9
2017-Nov-17 11:26N 35°57' W 005°33'9 0.4
2017-Nov-16 12:10N 36°01' W 005°23'315.7
2017-Nov-16 12:00N 36°02' W 005°20'6 0.3
2017-Nov-15 12:31N 36°02' W 005°12'010.8
2017-Nov-15 12:30N 36°02' W 005°12'612.1
2017-Nov-15 12:00N 36°01' W 005°19'8 0.9
2017-Nov-15 03:06N 36°08' W 005°25'0 0.0
2017-Nov-15 03:00N 36°08' W 005°25'0 0.0
2017-Nov-14 23:18N 36°08' W 005°25'1 0.0
2017-Nov-14 04:40N 36°08' W 005°25'0 0.1
2017-Nov-14 04:28N 36°08' W 005°25'0 0.0
2017-Nov-14 03:58N 36°08' W 005°25'0 0.0
2017-Nov-14 03:28N 36°08' W 005°25'0 0.0
2017-Nov-14 02:43N 36°08' W 005°25'0 0.0
2017-Nov-14 02:22N 36°08' W 005°25'0 0.0
2017-Nov-14 01:58N 36°08' W 005°25'0 0.0
2017-Nov-14 01:28N 36°08' W 005°25'0 0.0
2017-Nov-14 00:55N 36°08' W 005°25'0 0.1
2017-Nov-14 00:28N 36°08' W 005°24'0 0.0
2017-Nov-13 23:55N 36°08' W 005°25'0 0.1
2017-Nov-13 23:04N 36°08' W 005°25'0 0.0
2017-Nov-13 22:52N 36°08' W 005°25'0 0.1
2017-Nov-13 22:22N 36°08' W 005°24'0 0.1
2017-Nov-13 21:49N 36°08' W 005°24'412 8.1
2017-Nov-11 19:01N 31°07' W 011°02'113.5
2017-Nov-11 18:55N 31°06' W 011°03'613.4
2017-Nov-11 18:28N 31°01' W 011°07'613.3
2017-Nov-11 18:00N 30°56' W 011°12'1113.4
2017-Nov-11 17:09N 30°47' W 011°19'213.5
2017-Nov-11 17:00N 30°45' W 011°21'713.7
2017-Nov-11 16:30N 30°40' W 011°25'714.0
2017-Nov-11 16:00N 30°34' W 011°30'914.1
2017-Nov-11 15:21N 30°27' W 011°37'514.3
2017-Nov-11 15:00N 30°23' W 011°40'713.7
2017-Nov-11 14:30N 30°17' W 011°45'714.2
2017-Nov-11 14:00N 30°11' W 011°50'5414.5
2017-Nov-11 10:17N 29°27' W 012°26'414.4
2017-Nov-11 10:00N 29°24' W 012°28'714.2
2017-Nov-11 09:30N 29°18' W 012°33'714.5
2017-Nov-11 09:00N 29°12' W 012°38'714.5
2017-Nov-11 08:30N 29°07' W 012°43'814.5
2017-Nov-11 07:59N 29°01' W 012°49'1314.4
2017-Nov-11 07:05N 28°50' W 012°57'1914.2
2017-Nov-11 05:44N 28°35' W 013°10'414.3
2017-Nov-11 05:25N 28°32' W 013°14'614.5
2017-Nov-11 05:00N 28°27' W 013°18'714.7
2017-Nov-11 04:30N 28°21' W 013°22'715.0
2017-Nov-11 04:00N 28°15' W 013°27'714.9
2017-Nov-11 03:30N 28°09' W 013°32'714.7
2017-Nov-11 03:00N 28°03' W 013°37'714.5
2017-Nov-11 02:30N 27°57' W 013°42'714.1
2017-Nov-11 02:00N 27°51' W 013°47'714.0
2017-Nov-11 01:30N 27°46' W 013°52'713.7
2017-Nov-11 01:00N 27°40' W 013°56'713.7
2017-Nov-11 00:30N 27°35' W 014°01'713.9
2017-Nov-11 00:00N 27°29' W 014°05'714.2
2017-Nov-10 23:31N 27°23' W 014°09'714.6
2017-Nov-10 23:00N 27°17' W 014°15'714.6
2017-Nov-10 22:30N 27°11' W 014°19'1815.5
2017-Nov-10 21:22N 26°56' W 014°29'615.6
2017-Nov-10 21:01N 26°52' W 014°33'6915.7
2017-Nov-10 16:36N 25°54' W 015°16'215.4
2017-Nov-10 16:28N 25°52' W 015°17'715.4
2017-Nov-10 15:59N 25°46' W 015°21'815.5
2017-Nov-10 15:29N 25°39' W 015°26'815.5
2017-Nov-10 14:59N 25°32' W 015°29'815.5
2017-Nov-10 14:29N 25°25' W 015°33'815.7
2017-Nov-10 14:00N 25°18' W 015°37'815.8
2017-Nov-10 13:31N 25°11' W 015°40'816.2
2017-Nov-10 13:00N 25°04' W 015°44'816.1
2017-Nov-10 12:30N 24°57' W 015°48'815.9
2017-Nov-10 12:00N 24°50' W 015°53'816.1
2017-Nov-10 11:30N 24°43' W 015°57'816.1
2017-Nov-10 11:00N 24°36' W 016°01'  
Track history (hours):
 
Tides and Currents Weather Stations Pressure Air Temp Water Temp Dewpoint Dewpoint Depression Visibility Wind Speed Wind Dir Waves Ship Positions

Max Wonder

Last reported at 2017-Nov-20 00:31 UTC. Time now 2017-Nov-24 13:00 UTC.
Position N 28°05' W 015°21'.

Length 162 m; draft 9.3 m.

MMSI: 249060000.

Date/timePositionNaut miles runAvg speedWind from/ knotsBaromVisibWave heightAir tempDewpointWater temp
2017-Nov-20 00:31N 28°05' W 015°21'5 9.8
2017-Nov-20 00:00N 28°08' W 015°25'0 0.4
2017-Nov-19 23:23N 28°09' W 015°25'0 0.0
2017-Nov-19 22:56N 28°09' W 015°25'0 0.0
2017-Nov-19 22:26N 28°09' W 015°25'0 0.0
2017-Nov-19 21:56N 28°09' W 015°25'0 0.0
2017-Nov-19 21:26N 28°09' W 015°25'0 0.0
2017-Nov-19 20:56N 28°09' W 015°25'0 0.0
2017-Nov-19 20:26N 28°09' W 015°25'0 0.0
2017-Nov-19 19:59N 28°09' W 015°25'0 0.0
2017-Nov-19 19:29N 28°09' W 015°25'0 0.0
2017-Nov-19 18:59N 28°09' W 015°25'0 0.0
2017-Nov-19 18:29N 28°09' W 015°25'0 0.0
2017-Nov-19 17:59N 28°09' W 015°25'0 0.0
2017-Nov-19 17:29N 28°09' W 015°25'0 0.0
2017-Nov-19 16:59N 28°09' W 015°25'0 0.0
2017-Nov-19 16:29N 28°09' W 015°25'0 0.0
2017-Nov-19 15:59N 28°09' W 015°25'0 0.0
2017-Nov-19 15:29N 28°09' W 015°25'0 0.0
2017-Nov-19 14:59N 28°09' W 015°25'0 0.1
2017-Nov-19 14:31N 28°09' W 015°25'2 3.8
2017-Nov-19 14:00N 28°07' W 015°24'2 4.4
2017-Nov-19 13:31N 28°06' W 015°22'2 4.7
2017-Nov-19 13:01N 28°06' W 015°19'4 8.2
2017-Nov-19 12:31N 28°09' W 015°16'612.3
2017-Nov-19 12:00N 28°14' W 015°11'714.2
2017-Nov-19 11:30N 28°19' W 015°06'714.1
2017-Nov-19 11:00N 28°25' W 015°01'714.4
2017-Nov-19 10:30N 28°30' W 014°56'714.5
2017-Nov-19 10:00N 28°36' W 014°51'64613.9
2017-Nov-17 11:26N 35°57' W 005°33'9 0.4
2017-Nov-16 12:10N 36°01' W 005°23'315.7
2017-Nov-16 12:00N 36°02' W 005°20'6 0.3
2017-Nov-15 12:31N 36°02' W 005°12'010.8
2017-Nov-15 12:30N 36°02' W 005°12'612.1
2017-Nov-15 12:00N 36°01' W 005°19'8 0.9
2017-Nov-15 03:06N 36°08' W 005°25'0 0.0
2017-Nov-15 03:00N 36°08' W 005°25'0 0.0
2017-Nov-14 23:18N 36°08' W 005°25'1 0.0
2017-Nov-14 04:40N 36°08' W 005°25'0 0.1
2017-Nov-14 04:28N 36°08' W 005°25'0 0.0
2017-Nov-14 03:58N 36°08' W 005°25'0 0.0
2017-Nov-14 03:28N 36°08' W 005°25'0 0.0
2017-Nov-14 02:43N 36°08' W 005°25'0 0.0
2017-Nov-14 02:22N 36°08' W 005°25'0 0.0
2017-Nov-14 01:58N 36°08' W 005°25'0 0.0
2017-Nov-14 01:28N 36°08' W 005°25'0 0.0
2017-Nov-14 00:55N 36°08' W 005°25'0 0.1
2017-Nov-14 00:28N 36°08' W 005°24'0 0.0
2017-Nov-13 23:55N 36°08' W 005°25'0 0.1
2017-Nov-13 23:04N 36°08' W 005°25'0 0.0
2017-Nov-13 22:52N 36°08' W 005°25'0 0.1
2017-Nov-13 22:22N 36°08' W 005°24'0 0.1
2017-Nov-13 21:49N 36°08' W 005°24'412 8.1
2017-Nov-11 19:01N 31°07' W 011°02'113.5
2017-Nov-11 18:55N 31°06' W 011°03'613.4
2017-Nov-11 18:28N 31°01' W 011°07'613.3
2017-Nov-11 18:00N 30°56' W 011°12'1113.4
2017-Nov-11 17:09N 30°47' W 011°19'213.5
2017-Nov-11 17:00N 30°45' W 011°21'713.7
2017-Nov-11 16:30N 30°40' W 011°25'714.0
2017-Nov-11 16:00N 30°34' W 011°30'914.1
2017-Nov-11 15:21N 30°27' W 011°37'514.3
2017-Nov-11 15:00N 30°23' W 011°40'713.7
2017-Nov-11 14:30N 30°17' W 011°45'714.2
2017-Nov-11 14:00N 30°11' W 011°50'5414.5
2017-Nov-11 10:17N 29°27' W 012°26'414.4
2017-Nov-11 10:00N 29°24' W 012°28'714.2
2017-Nov-11 09:30N 29°18' W 012°33'714.5
2017-Nov-11 09:00N 29°12' W 012°38'714.5
2017-Nov-11 08:30N 29°07' W 012°43'814.5
2017-Nov-11 07:59N 29°01' W 012°49'1314.4
2017-Nov-11 07:05N 28°50' W 012°57'1914.2
2017-Nov-11 05:44N 28°35' W 013°10'414.3
2017-Nov-11 05:25N 28°32' W 013°14'614.5
2017-Nov-11 05:00N 28°27' W 013°18'714.7
2017-Nov-11 04:30N 28°21' W 013°22'715.0
2017-Nov-11 04:00N 28°15' W 013°27'714.9
2017-Nov-11 03:30N 28°09' W 013°32'714.7
2017-Nov-11 03:00N 28°03' W 013°37'714.5
2017-Nov-11 02:30N 27°57' W 013°42'714.1
2017-Nov-11 02:00N 27°51' W 013°47'714.0
2017-Nov-11 01:30N 27°46' W 013°52'713.7
2017-Nov-11 01:00N 27°40' W 013°56'713.7
2017-Nov-11 00:30N 27°35' W 014°01'713.9
2017-Nov-11 00:00N 27°29' W 014°05'714.2
2017-Nov-10 23:31N 27°23' W 014°09'714.6
2017-Nov-10 23:00N 27°17' W 014°15'714.6
2017-Nov-10 22:30N 27°11' W 014°19'1815.5
2017-Nov-10 21:22N 26°56' W 014°29'615.6
2017-Nov-10 21:01N 26°52' W 014°33'6915.7
2017-Nov-10 16:36N 25°54' W 015°16'215.4
2017-Nov-10 16:28N 25°52' W 015°17'715.4
2017-Nov-10 15:59N 25°46' W 015°21'815.5
2017-Nov-10 15:29N 25°39' W 015°26'815.5
2017-Nov-10 14:59N 25°32' W 015°29'815.5
2017-Nov-10 14:29N 25°25' W 015°33'815.7
2017-Nov-10 14:00N 25°18' W 015°37'815.8
2017-Nov-10 13:31N 25°11' W 015°40'816.2
2017-Nov-10 13:00N 25°04' W 015°44'816.1
2017-Nov-10 12:30N 24°57' W 015°48'815.9
2017-Nov-10 12:00N 24°50' W 015°53'816.1
2017-Nov-10 11:30N 24°43' W 015°57'816.1
2017-Nov-10 11:00N 24°36' W 016°01'  

Dump ship's entire track history